createdAt,value
2019-01-16T00:02:47.562Z,4.27
2019-01-16T00:08:07.994Z,4.40
2019-01-16T00:13:26.593Z,4.67
2019-01-16T00:18:29.778Z,4.47
2019-01-16T00:23:32.969Z,4.40
2019-01-16T00:28:39.238Z,4.60
2019-01-16T00:33:42.424Z,3.90
2019-01-16T00:39:04.056Z,3.90
2019-01-16T00:44:09.958Z,4.07
2019-01-16T00:49:13.137Z,3.97
2019-01-16T00:54:22.526Z,4.07
2019-01-16T00:59:28.778Z,3.90
2019-01-16T01:04:38.114Z,3.90
2019-01-16T01:09:58.252Z,3.80
2019-01-16T01:15:07.239Z,4.20
2019-01-16T01:20:10.741Z,4.17
2019-01-16T01:25:22.942Z,4.03
2019-01-16T01:30:29.107Z,4.67
2019-01-16T01:35:38.359Z,3.93
2019-01-16T01:40:44.802Z,4.87
2019-01-16T01:45:47.991Z,4.17
2019-01-16T01:51:03.380Z,3.93
2019-01-16T01:56:12.609Z,4.37
2019-01-16T02:01:22.139Z,3.83
2019-01-16T02:06:28.642Z,4.47
2019-01-16T02:11:37.665Z,4.43
2019-01-16T02:16:43.882Z,4.00
2019-01-16T02:21:50.189Z,3.93
2019-01-16T02:27:08.675Z,4.20
2019-01-16T02:32:11.863Z,4.30
2019-01-16T02:37:24.520Z,4.30
2019-01-16T02:42:27.707Z,3.93
2019-01-16T02:47:30.881Z,4.10
2019-01-16T02:52:34.086Z,4.23
2019-01-16T02:57:46.162Z,4.43
2019-01-16T03:03:04.498Z,4.00
2019-01-16T03:08:08.050Z,4.03
2019-01-16T03:13:11.237Z,5.03
2019-01-16T03:18:14.422Z,4.40
2019-01-16T03:23:17.619Z,4.67
2019-01-16T03:28:23.590Z,4.17
2019-01-16T03:33:33.134Z,4.23
2019-01-16T03:38:56.183Z,3.53
2019-01-16T03:44:11.461Z,4.30
2019-01-16T03:49:26.773Z,3.90
2019-01-16T03:54:39.039Z,3.93
2019-01-16T03:59:45.010Z,4.50
2019-01-16T04:04:48.200Z,4.70
2019-01-16T04:09:51.381Z,4.17
2019-01-16T04:15:00.785Z,4.20
2019-01-16T04:20:05.368Z,4.40
2019-01-16T04:25:11.053Z,4.50
2019-01-16T04:30:16.858Z,4.13
2019-01-16T04:35:26.207Z,4.30
2019-01-16T04:40:38.254Z,4.43
2019-01-16T04:45:53.887Z,4.43
2019-01-16T04:51:12.521Z,4.57
2019-01-16T04:56:32.773Z,4.13
2019-01-16T05:01:52.616Z,4.73
2019-01-16T05:06:58.734Z,4.70
2019-01-16T05:12:18.823Z,4.43
2019-01-16T05:17:22.337Z,4.83
2019-01-16T05:22:28.262Z,5.47
2019-01-16T05:27:48.202Z,4.90
2019-01-16T05:32:57.175Z,4.80
2019-01-16T05:38:03.125Z,6.23
2019-01-16T05:43:12.887Z,6.77
2019-01-16T05:48:19.089Z,5.87
2019-01-16T05:53:22.265Z,5.97
2019-01-16T05:58:25.903Z,5.57
2019-01-16T06:03:44.740Z,6.27
2019-01-16T06:08:50.894Z,7.17
2019-01-16T06:13:54.076Z,7.00
2019-01-16T06:19:14.443Z,10.33
2019-01-16T06:24:29.813Z,7.90
2019-01-16T06:29:42.353Z,8.13
2019-01-16T06:35:03.745Z,9.37
2019-01-16T06:40:12.663Z,8.60
2019-01-16T06:45:24.849Z,7.33
2019-01-16T06:50:40.030Z,6.53
2019-01-16T06:55:43.210Z,8.50
2019-01-16T07:00:46.792Z,15.23
2019-01-16T07:05:49.969Z,12.93
2019-01-16T07:11:08.213Z,8.70
2019-01-16T07:16:28.206Z,8.53
2019-01-16T07:21:43.488Z,8.60
2019-01-16T07:26:52.417Z,7.13
2019-01-16T07:32:08.022Z,8.73
2019-01-16T07:37:29.522Z,8.50
2019-01-16T07:42:35.826Z,8.23
2019-01-16T07:47:38.973Z,9.20
2019-01-16T07:52:44.884Z,10.03
2019-01-16T07:57:48.085Z,8.47
2019-01-16T08:03:00.634Z,9.87
2019-01-16T08:08:06.536Z,9.57
2019-01-16T08:13:26.569Z,9.33
2019-01-16T08:18:41.785Z,8.67
2019-01-16T08:23:51.014Z,7.33
2019-01-16T08:28:54.201Z,7.57
2019-01-16T08:34:03.416Z,9.33
2019-01-16T08:39:26.933Z,8.63
2019-01-16T08:44:39.593Z,8.83
2019-01-16T08:49:45.777Z,8.30
2019-01-16T08:54:48.961Z,8.20
2019-01-16T09:00:07.856Z,9.23
2019-01-16T09:05:11.450Z,7.13
2019-01-16T09:10:20.170Z,7.13
2019-01-16T09:15:41.530Z,6.97
2019-01-16T09:20:45.012Z,7.10
2019-01-16T09:26:05.044Z,5.73
2019-01-16T09:31:17.270Z,5.20
2019-01-16T09:36:30.891Z,5.03
2019-01-16T09:41:40.142Z,4.30
2019-01-16T09:46:46.065Z,5.77
2019-01-16T09:51:49.241Z,5.70
2019-01-16T09:57:09.205Z,8.40
2019-01-16T10:02:12.425Z,12.60
2019-01-16T10:07:27.827Z,10.83
2019-01-16T10:12:46.081Z,6.80
2019-01-16T10:18:05.972Z,6.07
2019-01-16T10:23:09.448Z,5.97
2019-01-16T10:28:24.773Z,6.00
2019-01-16T10:33:30.872Z,5.20
2019-01-16T10:38:39.794Z,6.10
2019-01-16T10:43:48.745Z,5.87
2019-01-16T10:48:54.718Z,6.83
2019-01-16T10:53:58.225Z,3.00
2019-01-16T10:59:19.858Z,2.17
2019-01-16T11:04:32.385Z,2.50
2019-01-16T11:09:44.866Z,1.93
2019-01-16T11:14:50.765Z,2.10
2019-01-16T11:19:53.942Z,1.77
2019-01-16T11:25:03.012Z,1.80
2019-01-16T11:30:11.718Z,4.97
2019-01-16T11:35:21.538Z,1.70
2019-01-16T11:40:27.901Z,1.93
2019-01-16T11:45:33.801Z,1.70
2019-01-16T11:50:40.113Z,1.70
2019-01-16T11:55:43.293Z,1.70
2019-01-16T12:00:49.513Z,1.80
2019-01-16T12:05:52.694Z,1.90
2019-01-16T12:11:12.510Z,2.00
2019-01-16T12:16:30.642Z,1.97
2019-01-16T12:21:36.864Z,1.67
2019-01-16T12:26:52.014Z,1.90
2019-01-16T12:31:58.054Z,2.00
2019-01-16T12:37:03.993Z,1.80
2019-01-16T12:42:13.442Z,1.87
2019-01-16T12:47:16.958Z,1.50
2019-01-16T12:52:25.924Z,1.93
2019-01-16T12:57:35.086Z,1.50
2019-01-16T13:02:44.609Z,1.77
2019-01-16T13:07:47.834Z,1.40
2019-01-16T13:12:51.029Z,1.60
2019-01-16T13:17:54.214Z,1.60
2019-01-16T13:22:57.766Z,2.00
2019-01-16T13:28:13.146Z,1.97
2019-01-16T13:33:16.683Z,1.97
2019-01-16T13:38:19.870Z,2.70
2019-01-16T13:43:26.030Z,2.53
2019-01-16T13:48:29.593Z,2.43
2019-01-16T13:53:32.781Z,2.60
2019-01-16T13:58:35.982Z,2.30
2019-01-16T14:03:41.946Z,2.70
2019-01-16T14:08:57.566Z,2.33
2019-01-16T14:14:00.864Z,2.23
2019-01-16T14:19:19.542Z,2.30
2019-01-16T14:24:28.649Z,2.20
2019-01-16T14:29:32.237Z,2.60
2019-01-16T14:34:38.421Z,2.43
2019-01-16T14:39:44.324Z,3.60
2019-01-16T14:44:47.533Z,3.27
2019-01-16T14:49:56.861Z,3.53
2019-01-16T14:55:06.125Z,4.13
2019-01-16T15:00:11.499Z,4.47
2019-01-16T15:05:24.047Z,6.37
2019-01-16T15:10:27.529Z,6.07
2019-01-16T15:15:47.662Z,5.00
2019-01-16T15:20:53.578Z,5.00
2019-01-16T15:25:59.795Z,6.00
2019-01-16T15:31:02.982Z,6.30
2019-01-16T15:36:11.917Z,6.63
2019-01-16T15:41:32.333Z,6.80
2019-01-16T15:46:35.525Z,7.03
2019-01-16T15:51:41.830Z,5.83
2019-01-16T15:56:48.371Z,6.73
2019-01-16T16:02:01.714Z,10.97
2019-01-16T16:07:08.249Z,8.40
2019-01-16T16:12:14.503Z,8.90
2019-01-16T16:17:17.689Z,8.50
2019-01-16T16:22:20.877Z,7.67
2019-01-16T16:27:24.065Z,10.20
2019-01-16T16:32:33.000Z,8.60
2019-01-16T16:37:53.013Z,6.20
2019-01-16T16:42:56.201Z,7.43
2019-01-16T16:47:59.743Z,6.77
2019-01-16T16:53:02.933Z,7.30
2019-01-16T16:58:12.010Z,8.13
2019-01-16T17:03:15.194Z,11.17
2019-01-16T17:08:21.349Z,9.37
2019-01-16T17:13:30.793Z,8.53
2019-01-16T17:18:39.876Z,7.87
2019-01-16T17:23:58.127Z,7.77
2019-01-16T17:29:17.939Z,8.10
2019-01-16T17:34:21.462Z,15.77
2019-01-16T17:39:41.248Z,8.97
2019-01-16T17:44:44.421Z,10.57
2019-01-16T17:49:47.612Z,10.80
2019-01-16T17:55:07.621Z,8.93
2019-01-16T18:00:16.088Z,10.33
2019-01-16T18:05:22.321Z,10.97
2019-01-16T18:10:34.833Z,10.53
2019-01-16T18:15:44.033Z,8.97
2019-01-16T18:20:49.947Z,7.63
2019-01-16T18:25:58.917Z,10.33
2019-01-16T18:31:20.452Z,7.63
2019-01-16T18:36:23.629Z,7.50
2019-01-16T18:41:39.182Z,6.50
2019-01-16T18:46:48.186Z,6.13
2019-01-16T18:52:00.614Z,6.23
2019-01-16T18:57:22.346Z,6.20
2019-01-16T19:02:31.581Z,7.10
2019-01-16T19:07:40.823Z,7.17
2019-01-16T19:12:53.222Z,7.83
2019-01-16T19:18:02.283Z,7.53
2019-01-16T19:23:22.156Z,7.07
2019-01-16T19:28:25.329Z,6.63
2019-01-16T19:33:28.513Z,9.37
2019-01-16T19:38:32.004Z,8.03
2019-01-16T19:43:35.184Z,12.70
2019-01-16T19:48:38.737Z,6.90
2019-01-16T19:53:42.230Z,5.63
2019-01-16T19:58:51.854Z,9.77
2019-01-16T20:04:04.088Z,9.33
2019-01-16T20:09:19.492Z,9.37
2019-01-16T20:14:39.576Z,10.17
2019-01-16T20:19:42.764Z,6.43
2019-01-16T20:25:02.814Z,4.37
2019-01-16T20:30:15.822Z,5.60
2019-01-16T20:35:28.046Z,7.60
2019-01-16T20:40:31.226Z,6.90
2019-01-16T20:45:40.481Z,5.33
2019-01-16T20:50:43.664Z,6.83
2019-01-16T20:55:46.842Z,6.87
2019-01-16T21:00:50.399Z,6.07
2019-01-16T21:06:10.399Z,5.70
2019-01-16T21:11:28.765Z,4.23
2019-01-16T21:16:31.938Z,5.07
2019-01-16T21:21:35.452Z,4.70
2019-01-16T21:26:41.398Z,3.63
2019-01-16T21:32:01.666Z,4.07
2019-01-16T21:37:21.389Z,4.07
2019-01-16T21:42:27.401Z,5.37
2019-01-16T21:47:36.395Z,3.53
2019-01-16T21:52:38.453Z,3.03
2019-01-16T21:57:58.684Z,3.80
2019-01-16T22:03:13.990Z,3.00
2019-01-16T22:08:35.580Z,5.37
2019-01-16T22:13:39.069Z,11.73
2019-01-16T22:18:48.294Z,3.37
2019-01-16T22:24:09.665Z,4.43
2019-01-16T22:29:29.638Z,3.30
2019-01-16T22:34:32.822Z,4.25
2019-01-16T22:39:36.373Z,3.50
2019-01-16T22:44:39.853Z,3.83
2019-01-16T22:49:43.036Z,3.73
2019-01-16T22:54:52.388Z,3.60
2019-01-16T22:59:55.589Z,4.33
2019-01-16T23:05:04.789Z,3.77
2019-01-16T23:10:25.954Z,3.80
2019-01-16T23:15:35.162Z,4.80
2019-01-16T23:20:47.826Z,5.20
2019-01-16T23:25:51.026Z,5.57
2019-01-16T23:30:57.509Z,5.03
2019-01-16T23:36:10.181Z,5.73
2019-01-16T23:41:30.258Z,6.00
2019-01-16T23:46:36.529Z,7.03
2019-01-16T23:51:42.814Z,7.17
2019-01-16T23:56:46.002Z,7.23
